Relevés horaires Schaffen (Belgique)


Relevés horaires à Schaffen - Samedi 21 Mars 2020
Heure UTC1 Température [°C] Vent [km/h] Hum. [%] Pres.4 [hPa] Visi. [Km] Nébu. [octa] Préc.5 [mm] Cond.
2m. Res. Ros. Dir.2 Vit. Moy. Raf.3
23:00 3.4 1.4 -3.9 E 7.4 -- 14.8 59 1027.4(1.0/3h) 20 -- -- --
22:00 4.1 2.2 -3.4 ENE 7.4 -- 14.8 58 1027(1.2/3h) 20 -- -- --
21:00 4.9 2.7 -3.3 ENE 9.3 -- 18.5 55 1026.7(1.2/3h) 20 -- -- --
20:00 5.7 3.3 -3.5 ENE 11.1 -- 18.5 51 1026.2(1.2/3h) 20 -- -- --
19:00 6.4 4.9 -3.2 ENE 7.4 -- 18.5 50 1025.9(0.9/3h) 20 -- -- --
18:00 7.2 5.1 -3.2 ENE 11.1 -- 22.2 47 1025.2(0.1/3h) 20 -- -- --
17:00 8.3 6.1 -2.2 ENE 13.0 -- 22.2 47 1024.9(-0.5/3h) 20 -- -- --
16:00 9.3 7.6 -2.2 ENE 11.1 -- 18.5 44 1024.7(-1.0/3h) 20 -- -- --
15:00 9.1 7.4 -1.3 ENE 11.1 -- 20.4 48 1025(-1.1/3h) 20 -- -- --
14:00 8.8 6.7 -0.7 ENE 13.0 -- 20.4 51 1025.5(-0.9/3h) 20 -- -- --
13:00 8.6 6.5 -0.2 ENE 13.0 -- 18.5 54 1025.9(-0.7/3h) 20 -- -- --
12:00 7.8 6.1 0.1 ENE 9.3 -- 20.4 58 1026.2(-0.5/3h) 20 -- -- --
11:00 7.5 5.4 0.3 ENE 11.1 -- 20.4 60 1026.5(-0.5/3h) 20 -- -- --
10:00 6.2 3.9 -0.2 ENE 11.1 -- 20.4 63 1026.7(-0.5/3h) 20 -- -- --
09:00 5.6 3.2 -0.1 NE 11.1 -- 20.4 67 1026.9(-0.4/3h) 20 -- -- --
08:00 4.4 1.3 0.7 NE 13.0 -- 18.5 77 1027(-0.1/3h) 20 -- -- --
07:00 3.2 0.7 1.0 NE 9.3 -- 16.7 85 1027.2(0.3/3h) 14 -- -- --
06:00 3.2 0.7 1.4 NE 9.3 -- 20.4 88 1027.2(0.2/3h) 10 -- -- NA
05:00 4.0 1.6 2.1 NE 9.3 -- 20.4 87 1027.2(0.2/3h) 10 -- -- --
04:00 4.5 2.7 2.7 NE 7.4 -- 14.8 88 1026.9(0.0/3h) 11 -- -- --
03:00 4.5 2.2 1.9 NE 9.3 -- 20.4 83 1027(-0.3/3h) 20 -- -- NA
02:00 4.6 1.9 1.9 ENE 11.1 -- 20.4 83 1026.7(-0.8/3h) 20 -- -- --
01:00 4.5 1.8 2.2 ENE 11.1 -- 18.5 85 1026.9(-0.8/3h) 20 -- -- NA
00:00 4.4 2.1 2.6 NE 9.3 -- 20.4 88 1027.4(-0.3/3h) 17 -- -- Il y a de la pluie faible et continue à la station au moment de l'observation

1 Coordinated Universal Time. Actuellement il est 04:00 locale et 03:00 UTC.

2 Le vent souffle depuis la direction indiquée vers la direction oposée.

3 Les rafales max. sont disponible 40 min après l'heure du relevé.

4 Pour les stations d'altitude (plus de 600m) le géopotentiel du niveau le plus proche de la pression obligatoire est indiqué.

5 Les stations disposant d'un diffuseur peuvent indiquer "trace". Cela signifie que des précipitations ont touchés le sol mais que la quantité est inférieure à 0.1 mm.

Récapitulatif de la journée
Température [°C] Vent [km/h] Ensoleillement4 [h] Precipitations totale5 [mm] Pression [Hpa]
Min1 Max.2 Moy.3 Max. Min Max.
3.2 9.7 0 22.2 0 h 0 min 0 1024.7 1027.4

1 Température minimale relevée entre 18:00 UTC la veille et 18:00 UTC le jour donné.

2 Température maximale relevée entre 06:00 UTC le jour donné et 06:00 UTC le lendemain.

3 Vent moyen de la journée basé sur les relevés horaires.

4 Ensoleillement en heures relevé entre 06:00 UTC la veille et 06:00 UTC le jour donné.

5 Précipitations totales tombées entre 06:00 UTC la jour donné et 06:00 UTC le lendemain.

Graphiques horaires